Date,TemperatureHighF,TemperatureAvgF,TemperatureLowF,DewpointHighF,DewpointAvgF,DewpointLowF,HumidityHigh,HumidityAvg,HumidityLow,PressureMaxIn,PressureMinIn,WindSpeedMaxMPH,WindSpeedAvgMPH,GustSpeedMaxMPH,PrecipitationSumIn
2013-1-1,28.6,10.2,0.1,19.0,6.4,-3.0,92,85,66,30.44,30.30,11,2,0,0.00
2013-1-2,25.9,7.0,-1.5,24.0,3.9,-5.0,93,87,80,30.41,30.30,2,0,0,0.00
2013-1-3,28.1,16.5,-3.0,16.0,6.9,-7.0,90,68,51,30.30,30.16,17,6,0,0.00
2013-1-4,40.0,31.5,26.7,25.0,20.8,16.0,75,65,54,30.32,30.20,16,8,0,0.00
2013-1-5,31.3,27.2,19.2,27.0,20.4,13.0,93,76,57,30.22,30.13,11,7,0,0.00
2013-1-6,38.4,31.8,26.8,30.0,26.1,23.0,88,80,70,30.16,30.05,19,8,0,0.00
2013-1-7,45.3,38.2,31.7,36.0,31.0,25.0,88,76,63,30.14,29.99,20,10,0,0.02
2013-1-8,47.0,41.1,37.3,36.0,33.3,30.0,80,74,63,30.16,29.98,21,9,0,0.00
2013-1-9,46.4,35.6,22.2,32.0,27.6,19.0,90,74,52,29.97,29.75,29,10,0,0.01
2013-1-10,29.3,22.4,16.6,24.0,18.5,14.0,91,85,76,29.93,29.84,13,2,0,0.00
2013-1-11,25.2,17.9,7.4,18.0,13.1,4.0,89,81,69,30.12,29.91,9,2,0,0.00
2013-1-12,25.8,12.5,4.5,14.0,6.9,1.0,88,79,55,30.20,30.10,8,2,0,0.00
2013-1-13,28.3,13.1,3.7,15.0,6.6,0.0,87,76,51,30.29,30.18,3,1,0,0.00
2013-1-14,38.3,25.6,10.6,24.0,13.7,6.0,91,63,37,30.38,30.26,11,4,0,0.00
2013-1-15,50.3,33.4,20.0,31.0,21.9,17.0,87,65,41,30.52,30.38,12,3,0,0.00
2013-1-16,54.3,37.2,25.6,25.0,18.2,14.0,66,49,25,30.54,30.44,9,4,0,0.00
2013-1-17,50.7,41.9,32.8,22.0,18.4,14.0,53,39,31,30.45,30.34,13,6,0,0.00
2013-1-18,50.3,42.4,35.7,23.0,17.5,13.0,53,37,30,30.34,30.28,16,6,0,0.00
2013-1-19,57.2,43.1,28.4,21.0,16.3,11.0,64,37,19,30.36,30.29,10,4,0,0.00
2013-1-20,47.6,38.2,27.6,22.0,16.8,13.0,65,43,33,30.38,30.28,16,6,0,0.00
2013-1-21,50.4,39.1,30.5,25.0,15.4,11.0,70,39,28,30.29,30.15,19,8,0,0.00
2013-1-22,49.1,37.2,24.5,25.0,16.8,12.0,81,45,31,30.16,29.99,16,6,0,0.00
2013-1-23,47.2,40.3,34.2,34.0,23.3,15.0,92,54,36,30.10,29.85,23,9,0,0.04
2013-1-24,49.3,40.1,31.5,38.0,33.5,30.0,93,78,61,30.15,30.09,11,3,0,0.00
2013-1-25,42.7,40.3,36.4,39.0,36.8,35.0,95,87,76,30.12,29.91,18,7,0,0.16
2013-1-26,37.9,32.1,26.8,35.0,26.0,22.0,95,79,58,29.97,29.88,16,3,0,0.03
2013-1-27,34.9,28.9,24.2,26.0,23.9,21.0,91,81,61,30.04,29.96,13,4,0,0.00
2013-1-28,32.5,30.3,27.1,29.0,26.5,24.0,91,85,80,30.05,29.95,14,4,0,0.00
2013-1-29,39.5,34.9,32.1,33.0,30.1,28.0,87,82,74,30.34,30.04,13,4,0,0.06
2013-1-30,41.5,37.1,33.4,35.0,32.0,28.0,89,82,76,30.39,30.34,14,3,0,0.01
2013-1-31,45.5,36.5,28.5,36.0,31.8,27.0,93,83,62,30.36,30.27,8,2,0,0.00
2013-2-1,49.9,36.0,27.9,36.0,30.0,24.0,93,80,45,30.37,30.27,10,3,0,0.01
2013-2-2,49.3,36.8,24.6,34.0,27.2,21.0,88,69,49,30.38,30.25,13,4,0,0.00
2013-2-3,52.6,40.5,33.3,31.0,27.2,24.0,76,61,33,30.25,30.15,11,4,0,0.00
2013-2-4,51.5,41.3,32.1,27.0,24.7,18.0,76,54,27,30.16,29.93,11,3,0,0.00
2013-2-5,43.1,38.9,33.0,34.0,25.8,20.0,82,61,44,30.01,29.88,15,5,0,0.00
2013-2-6,43.2,36.6,31.0,27.0,25.0,24.0,80,64,49,30.08,29.87,14,7,0,0.00
2013-2-7,37.6,31.3,19.8,27.0,23.3,17.0,89,73,55,30.01,29.87,15,2,0,0.01
2013-2-8,36.3,25.4,16.4,24.0,19.1,14.0,92,78,56,30.11,30.01,13,3,0,0.00
2013-2-9,38.3,28.3,18.2,29.0,23.8,16.0,93,83,70,30.17,30.09,10,3,0,0.00
2013-2-10,42.0,31.4,23.4,30.0,25.0,21.0,94,78,50,30.24,30.17,10,2,0,0.00
2013-2-11,43.1,32.3,22.1,33.0,25.3,19.0,91,76,52,30.29,30.16,14,4,0,0.00
2013-2-12,45.8,34.4,25.2,33.0,28.3,23.0,91,79,58,30.39,30.29,10,2,0,0.00
2013-2-13,41.9,35.7,26.6,33.0,29.8,24.0,93,80,66,30.41,30.35,7,2,0,0.00
2013-2-14,47.8,35.9,25.9,37.0,31.1,24.0,94,83,66,30.49,30.41,8,2,0,0.01
2013-2-15,55.0,42.1,30.0,36.0,32.0,28.0,94,70,45,30.48,30.25,13,4,0,0.00
2013-2-16,49.8,39.6,25.5,36.0,28.8,23.0,88,66,47,30.25,30.11,16,5,0,0.00
2013-2-17,40.9,28.4,18.9,25.0,20.2,12.0,91,73,31,30.15,30.00,6,1,0,0.00
2013-2-18,40.6,32.6,23.4,24.0,19.5,16.0,81,60,41,30.00,29.70,8,3,0,0.00
2013-2-19,38.1,28.2,20.2,26.0,21.2,17.0,90,76,59,29.88,29.63,13,3,0,0.00
2013-2-20,37.7,30.0,19.9,26.0,22.6,18.0,92,76,50,29.98,29.89,11,2,0,0.00
2013-2-21,34.7,31.0,25.5,25.0,24.0,23.0,89,75,64,30.11,29.98,16,6,0,0.00
2013-2-22,40.8,33.9,25.8,33.0,27.2,22.0,92,76,66,30.11,29.84,20,7,0,0.00
2013-2-23,35.3,27.7,20.2,26.0,21.0,17.0,91,77,57,30.28,29.95,14,5,0,0.00
2013-2-24,43.1,31.8,19.8,26.0,21.9,17.0,90,69,46,30.29,30.01,13,5,0,0.00
2013-2-25,37.5,32.2,23.7,31.0,24.2,19.0,90,73,54,30.23,29.95,22,8,0,0.01
2013-2-26,43.0,31.7,18.2,22.0,17.1,11.0,91,60,29,30.27,30.17,15,4,0,0.00
2013-2-27,45.5,38.1,29.9,31.0,23.2,16.0,80,56,40,30.27,30.19,12,4,0,0.00
2013-2-28,50.8,43.8,39.6,39.0,35.3,27.0,83,72,58,30.45,30.21,22,7,0,0.00
2013-3-1,58.8,46.3,38.4,37.0,34.1,31.0,85,65,35,30.47,30.30,13,5,0,0.00
2013-3-2,53.7,46.7,36.4,36.0,33.4,25.0,84,61,33,30.30,30.09,14,5,0,0.00
2013-3-3,40.1,31.1,20.4,32.0,17.7,5.0,88,62,24,30.18,30.08,13,4,0,0.00
2013-3-4,46.7,32.1,18.6,21.0,16.2,12.0,84,55,30,30.16,29.91,17,5,0,0.00
2013-3-5,44.6,35.3,26.4,32.0,26.4,19.0,93,71,49,29.91,29.64,16,4,0,0.02
2013-3-6,39.2,34.0,28.5,35.0,29.4,23.0,94,83,73,29.91,29.50,19,8,0,0.19
2013-3-7,44.2,32.1,22.9,30.0,23.3,18.0,90,72,40,29.99,29.92,10,4,0,0.00
2013-3-8,43.9,31.4,23.3,32.0,23.8,17.0,91,75,45,30.14,29.94,14,3,0,0.00
2013-3-9,49.9,34.1,20.8,27.0,19.1,15.0,87,60,26,30.43,30.14,12,3,0,0.00
2013-3-10,54.9,40.6,25.9,37.0,26.4,16.0,85,61,24,30.43,30.34,14,4,0,0.00
2013-3-11,49.8,41.9,35.1,40.0,36.8,33.0,93,82,68,30.36,30.24,9,2,0,0.00
2013-3-12,58.2,45.5,34.7,39.0,34.0,26.0,94,67,33,30.25,30.14,10,4,0,0.00
2013-3-13,62.9,49.7,40.0,37.0,32.0,24.0,80,54,29,30.23,30.15,9,3,0,0.00
2013-3-14,63.1,52.3,40.4,34.0,29.9,21.0,77,44,29,30.20,30.08,15,5,0,0.00
2013-3-15,54.2,44.1,32.3,38.0,34.0,29.0,89,70,38,30.21,30.15,10,3,0,0.00
2013-3-16,48.0,36.9,28.3,35.0,29.3,25.0,93,76,46,30.14,29.91,24,7,0,0.00
2013-3-17,37.7,29.5,22.5,25.0,20.7,16.0,89,71,48,30.16,29.98,13,5,0,0.00
2013-3-18,47.1,33.5,23.9,25.0,21.3,15.0,87,64,27,30.17,30.11,11,2,0,0.00
2013-3-19,51.3,37.1,25.6,40.0,24.9,16.0,89,64,31,30.12,29.75,14,4,0,0.12
2013-3-20,47.6,39.8,27.2,39.0,32.7,23.0,90,76,58,30.03,29.62,29,14,0,0.09
2013-3-21,37.1,29.5,22.9,25.0,20.3,17.0,85,69,52,30.14,30.04,22,8,0,0.00
2013-3-22,34.1,27.0,17.3,22.0,18.7,12.0,92,73,41,30.25,30.13,20,5,0,0.00
2013-3-23,40.1,28.7,19.9,23.0,19.4,16.0,91,71,41,30.26,30.16,10,2,0,0.00
2013-3-24,44.1,32.9,21.8,27.0,22.9,18.0,85,68,42,30.19,30.07,10,2,0,0.00
2013-3-25,48.9,38.6,28.0,32.0,27.7,24.0,87,66,43,30.08,29.91,12,3,0,0.00
2013-3-26,47.3,39.5,32.8,40.0,34.3,28.0,92,82,70,29.97,29.93,8,2,0,0.12
2013-3-27,54.5,42.1,29.8,42.0,36.0,28.0,95,81,45,30.00,29.91,12,3,0,0.03
2013-3-28,54.6,44.8,35.5,42.0,39.1,34.0,96,82,54,30.13,29.99,9,3,0,0.03
2013-3-29,57.8,47.3,38.9,43.0,40.2,36.0,96,78,49,30.22,30.13,9,3,0,0.07
2013-3-30,65.0,50.1,35.5,46.0,39.1,34.0,94,69,36,30.23,30.09,14,3,0,0.00
2013-3-31,64.0,48.9,34.2,43.0,37.5,33.0,94,68,39,30.09,29.93,17,4,0,0.00
2013-4-1,60.1,46.1,31.0,44.0,38.1,29.0,95,75,44,30.13,29.97,15,5,0,0.00
2013-4-2,61.0,45.4,32.3,41.0,36.6,31.0,95,74,40,30.19,30.11,11,3,0,0.00
2013-4-3,63.1,47.6,32.0,41.0,34.1,25.0,94,65,24,30.16,29.99,12,3,0,0.00
2013-4-4,60.7,49.4,39.7,45.0,38.8,34.0,90,68,45,29.98,29.76,22,7,0,0.26
2013-4-5,52.1,44.8,39.4,40.0,36.6,33.0,86,74,48,29.98,29.90,18,7,0,0.05
2013-4-6,48.7,42.1,37.4,38.0,35.4,33.0,89,78,58,29.99,29.83,16,7,0,0.14
2013-4-7,43.5,40.1,29.7,36.0,31.3,25.0,86,71,54,29.81,29.65,26,15,0,0.09
2013-4-8,43.0,35.2,24.7,32.0,27.8,22.0,91,75,60,30.21,29.83,17,6,0,0.00
2013-4-9,53.4,40.3,24.2,34.0,28.4,22.0,94,67,29,30.30,30.21,9,3,0,0.00
2013-4-10,57.4,46.6,30.1,43.0,34.0,25.0,83,63,35,30.25,30.11,22,9,0,0.00
2013-4-11,47.1,35.3,23.7,30.0,25.7,22.0,92,70,44,30.22,30.10,15,4,0,0.00
2013-4-12,56.6,41.8,25.2,34.0,26.7,18.0,91,61,23,30.10,29.79,18,7,0,0.00
2013-4-13,41.9,36.8,26.7,32.0,21.1,16.0,77,55,36,29.99,29.78,22,10,0,0.00
2013-4-14,41.5,31.9,22.6,27.0,22.3,17.0,86,69,38,30.00,29.82,15,4,0,0.00
2013-4-15,38.6,30.1,21.6,31.0,26.6,19.0,95,87,55,30.05,29.82,16,5,0,0.03
2013-4-16,40.6,32.0,22.9,29.0,24.5,18.0,95,76,48,30.31,30.05,18,6,0,0.02
2013-4-17,46.0,33.8,19.2,28.0,20.6,15.0,91,63,32,30.40,30.31,16,4,0,0.00
2013-4-18,54.9,43.0,29.8,39.0,32.9,25.0,86,69,50,30.38,30.29,12,3,0,0.00
2013-4-19,53.4,45.2,35.7,40.0,37.4,32.0,88,75,52,30.29,30.14,22,8,0,0.09
2013-4-20,53.9,41.8,30.5,35.0,31.9,28.0,92,71,41,30.25,30.18,15,4,0,0.00
2013-4-21,54.6,42.6,28.6,39.0,32.9,26.0,91,71,45,30.22,30.14,14,6,0,0.00
2013-4-22,48.3,38.7,25.0,32.0,24.1,17.0,91,60,30,30.38,30.22,16,6,0,0.00
2013-4-23,57.1,40.7,21.5,22.0,13.6,2.0,78,40,11,30.35,30.12,19,6,0,0.00
2013-4-24,64.3,45.2,25.5,29.0,21.2,14.0,77,44,15,30.27,30.05,9,3,0,0.00
2013-4-25,66.2,50.9,34.7,37.0,30.1,23.0,72,48,29,30.18,30.02,15,5,0,0.00
2013-4-26,71.3,55.0,36.3,41.0,32.5,25.0,86,49,19,30.29,30.18,13,3,0,0.00
2013-4-27,68.2,55.3,39.0,34.0,29.9,24.0,68,41,19,30.30,30.19,17,7,0,0.00
2013-4-28,58.5,48.5,35.7,37.0,30.8,25.0,79,53,30,30.22,30.08,17,4,0,0.00
2013-4-29,52.9,46.1,29.8,39.0,30.2,23.0,78,56,32,30.08,29.99,25,10,0,0.00
2013-4-30,43.9,34.1,24.7,24.0,20.6,18.0,80,60,37,30.34,30.05,21,8,0,0.00
2013-5-1,57.2,41.0,20.3,26.0,20.8,17.0,88,50,21,30.51,30.35,12,4,0,0.00
2013-5-2,71.7,53.2,34.9,32.0,21.3,10.0,69,34,9,30.52,30.30,18,5,0,0.00
2013-5-3,65.3,53.3,35.9,35.0,29.8,26.0,68,43,28,30.31,30.21,20,6,0,0.00
2013-5-4,64.6,53.5,36.3,36.0,31.1,28.0,79,45,28,30.21,30.00,26,11,0,0.00
2013-5-5,69.3,58.1,41.3,37.0,32.6,29.0,63,39,28,29.99,29.83,25,9,0,0.00
2013-5-6,74.0,59.9,41.0,41.0,34.0,29.0,76,42,22,29.91,29.83,19,6,0,0.00
2013-5-7,74.7,60.0,43.8,45.0,39.8,32.0,82,51,25,30.02,29.89,18,6,0,0.00
2013-5-8,76.9,58.9,41.6,49.0,42.1,33.0,89,59,20,30.14,30.02,21,4,0,0.01
2013-5-9,79.1,61.9,46.5,48.0,43.7,36.0,87,56,23,30.21,30.13,19,4,0,0.00
2013-5-10,81.8,65.6,47.2,48.0,42.2,37.0,78,47,22,30.27,30.18,12,4,0,0.00
2013-5-11,83.6,67.4,51.4,51.0,46.8,44.0,79,52,25,30.27,30.12,13,4,0,0.00
2013-5-12,77.6,64.6,49.9,52.0,46.3,42.0,84,55,30,30.17,30.08,13,5,0,0.00
2013-5-13,63.5,52.3,37.3,48.0,41.3,31.0,90,68,43,30.19,30.07,23,6,0,0.01
2013-5-14,61.7,48.1,32.2,37.0,32.7,30.0,91,60,33,30.18,30.06,12,3,0,0.00
2013-5-15,59.1,47.4,36.2,45.0,36.2,30.0,82,67,37,30.10,30.01,13,4,0,0.01
2013-5-16,58.3,47.2,35.2,46.0,39.6,33.0,93,77,47,30.03,29.90,11,3,0,0.27
2013-5-17,53.8,45.9,38.2,42.0,38.9,34.0,94,78,55,30.07,29.95,10,4,0,0.15
2013-5-18,53.0,45.1,35.6,43.0,38.1,33.0,92,77,56,30.24,30.08,17,3,0,0.04
2013-5-19,59.1,45.7,33.9,41.0,36.4,32.0,94,73,41,30.34,30.24,17,4,0,0.00
2013-5-20,72.2,53.3,32.8,42.0,34.6,22.0,94,57,18,30.30,29.93,12,3,0,0.00
2013-5-21,53.1,43.6,31.4,42.0,34.2,26.0,89,71,38,29.92,29.75,20,7,0,0.15
2013-5-22,41.5,35.4,29.2,35.0,29.1,23.0,90,78,67,29.94,29.87,12,5,0,0.05
2013-5-23,52.0,41.1,27.4,36.0,29.7,24.0,92,68,34,29.99,29.93,13,3,0,0.03
2013-5-24,54.1,43.9,33.8,35.0,32.1,27.0,90,66,37,30.03,29.94,16,5,0,0.00
2013-5-25,60.5,46.6,28.4,43.0,33.5,26.0,94,65,36,30.02,29.95,11,3,0,0.00
2013-5-26,59.1,49.4,41.2,44.0,40.3,35.0,94,73,40,30.05,29.95,14,4,0,0.09
2013-5-27,55.4,46.1,38.0,48.0,41.5,35.0,90,84,70,30.02,29.81,18,5,0,0.25
2013-5-28,58.9,49.3,39.5,42.0,38.0,34.0,90,67,41,29.92,29.77,13,4,0,0.00
2013-5-29,55.0,48.3,42.2,43.0,39.5,35.0,91,73,50,30.01,29.69,22,9,0,0.20
2013-5-30,57.7,45.9,31.6,37.0,33.3,29.0,90,64,37,30.20,30.01,13,4,0,0.00
2013-5-31,64.9,50.2,31.5,39.0,33.5,28.0,94,58,25,30.27,30.20,13,2,0,0.00
2013-6-1,71.2,56.6,37.5,45.0,38.4,33.0,86,55,29,30.24,30.05,15,4,0,0.00
2013-6-2,65.5,52.8,39.8,46.0,38.9,30.0,95,63,27,30.07,30.00,18,6,0,0.00
2013-6-3,70.7,54.7,34.7,43.0,34.8,24.0,94,55,18,30.09,30.03,11,3,0,0.00
2013-6-4,74.4,59.6,39.1,42.0,38.2,32.0,84,49,25,30.15,30.09,12,4,0,0.00
2013-6-5,81.2,65.1,44.0,47.0,41.0,37.0,77,46,22,30.14,30.04,12,3,0,0.00
2013-6-6,81.7,65.6,47.3,50.0,43.2,34.0,83,50,18,30.11,30.02,13,3,0,0.00
2013-6-7,78.8,63.6,47.3,51.0,44.1,40.0,76,51,32,30.14,30.09,15,5,0,0.00
2013-6-8,80.3,63.6,43.5,44.0,37.0,22.0,82,44,13,30.16,30.09,16,4,0,0.00
2013-6-9,76.6,61.7,42.5,47.0,36.4,24.0,83,45,19,30.10,29.95,16,4,0,0.00
2013-6-10,72.7,55.9,34.9,39.0,30.1,22.0,79,43,15,29.98,29.82,13,5,0,0.00
2013-6-11,59.9,47.2,34.0,38.0,34.6,32.0,93,65,37,30.10,29.92,16,5,0,0.00
2013-6-12,59.5,46.8,31.3,38.0,34.0,29.0,94,64,35,30.13,30.08,15,5,0,0.00
2013-6-13,53.6,43.7,31.6,42.0,36.1,30.0,94,76,57,30.25,30.12,20,4,0,0.09
2013-6-14,70.0,52.0,33.1,40.0,33.8,22.0,94,57,16,30.25,30.03,12,3,0,0.00
2013-6-15,77.6,61.4,38.6,47.0,35.1,29.0,77,43,19,30.04,29.94,13,5,0,0.00
2013-6-16,76.6,61.8,47.2,51.0,45.1,38.0,88,58,26,30.14,30.03,17,4,0,0.00
2013-6-17,74.1,59.5,42.5,50.0,44.3,39.0,90,61,33,30.14,29.95,14,4,0,0.00
2013-6-18,57.5,50.5,43.2,48.0,44.6,41.0,92,80,63,30.01,29.90,12,5,0,0.62
2013-6-19,56.2,47.5,41.6,43.0,39.1,36.0,92,74,49,30.08,29.91,17,4,0,0.24
2013-6-20,59.6,48.5,35.1,41.0,35.8,32.0,90,64,38,30.13,30.04,11,4,0,0.00
2013-6-21,56.0,48.7,41.5,43.0,40.5,38.0,91,75,56,30.16,30.11,10,3,0,0.01
2013-6-22,71.9,56.3,36.6,46.0,39.5,34.0,94,59,26,30.15,29.95,10,3,0,0.00
2013-6-23,62.7,56.9,51.8,54.0,49.0,43.0,95,75,61,29.95,29.73,7,1,0,0.27
2013-6-24,60.0,53.3,47.0,52.0,47.8,44.0,95,82,60,29.79,29.70,7,2,0,0.15
2013-6-25,61.7,54.7,49.8,52.0,48.5,45.0,92,80,56,29.94,29.77,13,5,0,0.12
2013-6-26,65.2,56.9,49.8,55.0,50.7,47.0,93,80,62,30.14,29.94,9,2,0,0.02
2013-6-27,79.3,64.4,48.9,56.0,52.3,47.0,96,68,40,30.26,30.12,15,4,0,0.01
2013-6-28,85.8,70.7,52.3,60.0,55.0,50.0,94,62,33,30.28,30.13,14,3,0,0.00
2013-6-29,84.2,71.5,56.5,60.0,56.7,53.0,93,63,38,30.18,30.09,16,5,0,0.00
2013-6-30,90.8,75.0,54.9,58.0,55.2,50.0,87,54,30,30.14,29.99,17,5,0,0.00
2013-7-1,93.0,78.2,62.1,63.0,57.5,51.0,81,53,24,30.14,30.03,11,3,0,0.00
2013-7-2,95.1,78.7,60.6,64.0,57.5,45.0,87,54,19,30.17,30.10,12,4,0,0.00
2013-7-3,85.4,71.9,58.4,57.0,48.4,24.0,85,49,17,30.17,30.07,13,4,0,0.00
2013-7-4,76.7,63.9,47.6,40.0,36.9,33.0,65,39,20,30.12,30.00,15,6,0,0.00
2013-7-5,72.7,58.5,40.6,41.0,36.8,30.0,85,48,21,30.02,29.94,14,5,0,0.00
2013-7-6,79.5,58.5,37.8,39.0,35.3,22.0,85,49,12,29.98,29.88,11,3,0,0.00
2013-7-7,82.3,65.9,45.4,48.0,40.7,36.0,72,43,21,30.00,29.89,19,4,0,0.00
2013-7-8,81.8,63.1,44.5,43.0,36.1,30.0,78,42,16,30.14,30.00,7,2,0,0.00
2013-7-9,88.7,72.7,50.4,49.0,41.6,37.0,68,37,19,30.17,30.06,13,4,0,0.00
2013-7-10,86.1,71.0,53.7,51.0,45.4,41.0,75,44,21,30.12,29.96,14,4,0,0.00
2013-7-11,77.2,63.9,48.9,43.0,35.4,21.0,72,38,18,30.03,29.95,14,4,0,0.00
2013-7-12,74.3,58.1,41.3,39.0,29.1,19.0,60,36,15,30.10,29.98,14,4,0,0.00
2013-7-13,75.9,59.7,37.2,38.0,33.0,23.0,86,43,14,30.18,30.08,15,4,0,0.00
2013-7-14,84.3,67.2,43.7,42.0,35.3,32.0,66,35,17,30.17,30.03,15,4,0,0.00
2013-7-15,84.2,68.7,47.9,41.0,34.0,26.0,62,31,16,30.07,29.93,17,6,0,0.00